Time;durP1;ratioP1;P1;durP2;ratioP2;P2;SDS_P1;SDS_P2;PMS_P1;PMS_P2;Temp;Humidity;BMP_temperature;BMP_pressure;BME280_temperature;BME280_humidity;BME280_pressure;Samples;Min_cycle;Max_cycle;Signal;HPM_P1;HPM_P2
2022/06/04 00:00:59;;;;;;;6.77;6.13;;;18.40;99.90;19.50;96782.00;;;;5035214;28;20196;-70
2022/06/04 00:03:47;;;;;;;9.23;6.83;;;18.40;99.90;19.60;96787.00;;;;5038004;28;20208;-70
2022/06/04 00:06:37;;;;;;;7.10;6.10;;;18.30;99.90;19.60;96784.00;;;;5034028;28;20224;-69
2022/06/04 00:09:26;;;;;;;7.93;6.17;;;18.30;99.90;19.50;96787.00;;;;5036046;28;20229;-69
2022/06/04 00:15:30;;;;;;;7.10;6.43;;;18.30;99.90;19.60;96780.00;;;;5035526;28;20205;-70
2022/06/04 00:18:20;;;;;;;8.27;6.03;;;18.30;99.90;19.60;96782.00;;;;5034794;28;20208;-70
2022/06/04 00:21:11;;;;;;;7.97;7.20;;;18.30;99.90;19.70;96780.00;;;;5033205;28;20217;-70
2022/06/04 00:24:01;;;;;;;8.23;7.40;;;18.30;99.90;19.40;96778.00;;;;5036849;28;20205;-70
2022/06/04 00:26:51;;;;;;;8.90;7.40;;;18.30;99.90;19.30;96777.00;;;;5037762;28;20221;-70
2022/06/04 00:29:40;;;;;;;7.43;6.43;;;18.20;99.90;19.10;96784.00;;;;5037924;28;20212;-69
2022/06/04 00:32:29;;;;;;;7.93;7.23;;;18.20;99.90;19.20;96775.00;;;;5037089;28;20696;-71
2022/06/04 00:35:18;;;;;;;7.63;6.87;;;18.10;99.90;19.30;96771.00;;;;5037177;28;20199;-69
2022/06/04 00:38:08;;;;;;;11.07;7.00;;;18.10;99.90;19.30;96768.00;;;;5036006;28;20209;-69
2022/06/04 00:41:21;;;;;;;8.30;6.60;;;18.00;99.90;19.10;96768.00;;;;5033383;28;20197;-69
2022/06/04 00:45:20;;;;;;;10.53;6.73;;;18.00;99.90;18.90;96774.00;;;;5031024;28;20201;-69
2022/06/04 00:48:11;;;;;;;13.43;7.13;;;18.00;99.90;18.80;96775.00;;;;5032365;28;20712;-69
2022/06/04 00:50:59;;;;;;;9.20;6.60;;;17.90;99.90;18.60;96768.00;;;;5037365;28;20204;-68
2022/06/04 00:53:48;;;;;;;7.70;6.90;;;17.70;99.90;18.30;96776.00;;;;5037953;28;20201;-68
2022/06/04 00:56:47;;;;;;;7.67;6.83;;;17.60;99.90;18.50;96786.00;;;;5036214;28;20682;-68
2022/06/04 00:59:45;;;;;;;8.70;6.90;;;17.60;99.90;18.60;96775.00;;;;5038229;28;20282;-67
2022/06/04 01:02:54;;;;;;;7.07;6.37;;;17.50;99.90;18.60;96774.00;;;;5037200;28;20649;-68
2022/06/04 01:06:08;;;;;;;8.37;7.00;;;17.50;99.90;18.40;96774.00;;;;5036220;28;20204;-68
2022/06/04 01:09:23;;;;;;;8.50;7.77;;;17.40;99.90;18.70;96769.00;;;;5035479;28;20236;-68
2022/06/04 01:12:38;;;;;;;6.90;6.30;;;17.40;99.90;18.70;96773.00;;;;5032631;28;20585;-68
2022/06/04 01:15:48;;;;;;;10.53;6.77;;;17.40;99.90;18.40;96779.00;;;;5033592;28;20208;-69
2022/06/04 01:18:48;;;;;;;9.40;7.13;;;17.40;99.90;18.40;96771.00;;;;5034574;28;20197;-69
2022/06/04 01:21:52;;;;;;;6.53;5.90;;;17.30;99.90;18.20;96777.00;;;;5035971;28;20693;-68
2022/06/04 01:24:56;;;;;;;7.67;6.37;;;17.30;99.90;18.10;96774.00;;;;5033795;28;20201;-68
2022/06/04 01:27:50;;;;;;;7.80;5.90;;;17.20;99.90;18.10;96781.00;;;;5034752;28;20613;-68
2022/06/04 01:30:44;;;;;;;7.57;6.87;;;17.10;99.90;18.20;96783.00;;;;5036347;28;20688;-68
2022/06/04 01:33:39;;;;;;;7.77;7.07;;;17.10;99.90;18.30;96779.00;;;;5034818;28;20210;-68
2022/06/04 01:36:39;;;;;;;8.50;7.00;;;17.10;99.90;18.50;96786.00;;;;5033223;28;20197;-68
2022/06/04 01:41:03;;;;;;;11.23;7.90;;;17.20;99.90;18.60;96781.00;;;;5034297;28;20251;-69
2022/06/04 01:42:44;;;;;;;8.37;6.53;;;17.20;99.90;18.40;96784.00;;;;5033453;28;20205;-68
2022/06/04 01:45:35;;;;;;;8.23;6.80;;;17.20;99.90;18.20;96791.00;;;;5032859;28;20205;-68
2022/06/04 01:48:27;;;;;;;7.60;6.37;;;17.20;99.90;18.20;96792.00;;;;5033082;28;20221;-68
2022/06/04 01:51:22;;;;;;;8.30;6.07;;;17.10;99.90;18.00;96788.00;;;;5030937;28;20212;-68
2022/06/04 01:54:17;;;;;;;7.20;6.27;;;17.10;99.90;18.30;96798.00;;;;5033120;28;20209;-68
2022/06/04 01:57:14;;;;;;;8.50;7.03;;;17.10;99.90;18.30;96799.00;;;;5031062;28;20192;-68
2022/06/04 02:00:11;;;;;;;7.63;6.93;;;17.10;99.90;18.20;96798.00;;;;5036158;28;20228;-67
2022/06/04 02:03:07;;;;;;;8.30;6.17;;;17.10;99.90;17.80;96802.00;;;;5032570;28;20201;-68
2022/06/04 02:06:00;;;;;;;7.00;6.33;;;17.00;99.90;17.60;96815.00;;;;5037068;28;20200;-68
2022/06/04 02:08:54;;;;;;;7.17;5.83;;;16.90;99.90;17.70;96806.00;;;;5037995;28;20220;-67
2022/06/04 02:11:51;;;;;;;10.90;7.07;;;16.80;99.90;17.80;96805.00;;;;5037780;28;20204;-68
2022/06/04 02:14:43;;;;;;;7.60;6.80;;;16.80;99.90;17.70;96805.00;;;;5036887;28;20200;-67
2022/06/04 02:17:33;;;;;;;9.57;6.67;;;16.80;99.90;17.80;96804.00;;;;5035254;28;20197;-68
2022/06/04 02:20:24;;;;;;;6.07;5.57;;;16.80;99.90;18.00;96807.00;;;;5036390;28;20223;-67
2022/06/04 02:23:13;;;;;;;7.40;6.43;;;16.80;99.90;18.10;96797.00;;;;5033294;28;20212;-67
2022/06/04 02:26:03;;;;;;;6.13;5.30;;;16.80;99.90;18.10;96802.00;;;;5033912;28;20201;-67
2022/06/04 02:28:52;;;;;;;6.23;5.63;;;16.90;99.90;18.20;96806.00;;;;5032732;28;20231;-68
2022/06/04 02:31:50;;;;;;;5.37;4.93;;;16.90;99.90;18.20;96806.00;;;;5033481;28;20197;-68
2022/06/04 02:35:03;;;;;;;9.90;5.97;;;16.90;99.90;17.80;96807.00;;;;5033038;28;20205;-67
2022/06/04 02:38:00;;;;;;;6.27;5.67;;;16.80;99.90;17.90;96815.00;;;;5032202;28;20194;-68
2022/06/04 02:40:57;;;;;;;6.47;5.93;;;16.80;99.90;17.90;96815.00;;;;5029158;28;20232;-67
2022/06/04 02:43:53;;;;;;;7.63;5.53;;;16.80;99.90;17.80;96814.00;;;;5030962;28;20197;-68
2022/06/04 02:46:50;;;;;;;7.77;5.40;;;16.70;99.90;17.90;96811.00;;;;5032260;28;20220;-68
2022/06/04 02:49:46;;;;;;;8.33;5.93;;;16.70;99.90;17.60;96830.00;;;;5036757;28;20221;-68
2022/06/04 02:52:37;;;;;;;6.73;6.13;;;16.70;99.90;17.60;96827.00;;;;5036610;28;20197;-71
2022/06/04 02:55:32;;;;;;;6.37;5.23;;;16.70;99.90;17.30;96832.00;;;;5039840;28;20676;-68
2022/06/04 02:58:23;;;;;;;6.90;6.30;;;16.60;99.90;17.50;96835.00;;;;5037666;28;20212;-68
2022/06/04 03:01:12;;;;;;;6.33;5.73;;;16.60;99.90;17.60;96842.00;;;;5031465;28;20239;-68
2022/06/04 03:04:02;;;;;;;6.40;5.80;;;16.60;99.90;17.70;96841.00;;;;5032107;28;20247;-68
2022/06/04 03:06:51;;;;;;;6.67;5.97;;;16.50;99.90;17.70;96840.00;;;;5035729;28;20209;-68
2022/06/04 03:09:40;;;;;;;7.90;5.40;;;16.50;99.90;17.50;96839.00;;;;5034232;28;20237;-68
2022/06/04 03:12:30;;;;;;;7.43;5.43;;;16.50;99.90;17.50;96845.00;;;;5032829;28;20280;-69
2022/06/04 03:15:20;;;;;;;5.63;4.87;;;16.40;99.90;17.60;96851.00;;;;5036527;28;20193;-69
2022/06/04 03:18:09;;;;;;;9.03;5.40;;;16.50;99.90;17.60;96850.00;;;;5040492;28;20205;-69
2022/06/04 03:20:57;;;;;;;7.30;5.73;;;16.40;99.90;17.60;96862.00;;;;5038778;28;20571;-69
2022/06/04 03:23:46;;;;;;;5.43;4.83;;;16.40;99.90;17.60;96868.00;;;;5037054;28;20194;-69
2022/06/04 03:26:35;;;;;;;5.93;5.30;;;16.40;99.90;17.60;96866.00;;;;5035412;28;20196;-69
2022/06/04 03:29:25;;;;;;;6.00;5.50;;;16.40;99.90;17.60;96855.00;;;;5038508;28;20742;-69
2022/06/04 03:32:14;;;;;;;10.03;5.53;;;16.40;99.90;17.70;96865.00;;;;5037559;28;20215;-69
2022/06/04 03:35:04;;;;;;;5.57;5.07;;;16.40;99.90;17.60;96867.00;;;;5036627;28;20197;-69
2022/06/04 03:37:52;;;;;;;5.57;5.00;;;16.40;99.90;17.70;96870.00;;;;5032374;28;20210;-69
2022/06/04 03:40:41;;;;;;;7.47;5.27;;;16.40;99.90;17.60;96861.00;;;;5033184;28;20228;-68
2022/06/04 03:43:30;;;;;;;7.33;5.67;;;16.40;99.90;17.40;96862.00;;;;5034536;28;20197;-68
2022/06/04 03:46:21;;;;;;;5.40;4.90;;;16.40;99.90;17.50;96870.00;;;;5035669;28;20199;-68
2022/06/04 03:49:10;;;;;;;6.03;5.10;;;16.40;99.90;17.50;96876.00;;;;5037130;28;20224;-68
2022/06/04 03:52:00;;;;;;;6.00;5.27;;;16.30;99.90;17.40;96875.00;;;;5038434;28;20578;-69
2022/06/04 03:54:55;;;;;;;7.37;5.90;;;16.30;99.90;17.30;96885.00;;;;5036442;28;20205;-68
2022/06/04 03:57:48;;;;;;;6.87;5.70;;;16.30;99.90;17.50;96892.00;;;;5039769;28;20209;-69
2022/06/04 04:00:41;;;;;;;6.57;5.90;;;16.30;99.90;17.40;96881.00;;;;5033717;28;20213;-69
2022/06/04 04:03:35;;;;;;;5.60;4.90;;;16.30;99.90;17.20;96894.00;;;;5029744;28;20209;-69
2022/06/04 04:06:33;;;;;;;5.00;4.53;;;16.30;99.90;17.30;96886.00;;;;5041641;28;20209;-68
2022/06/04 04:09:22;;;;;;;4.73;4.33;;;16.30;99.90;17.10;96898.00;;;;5030429;28;20237;-68
2022/06/04 04:12:10;;;;;;;5.00;4.30;;;16.20;99.90;16.60;96893.00;;;;5033872;28;20213;-68
2022/06/04 04:15:04;;;;;;;7.90;5.20;;;16.10;99.90;16.90;96898.00;;;;5029361;28;20550;-68
2022/06/04 04:17:54;;;;;;;5.33;4.83;;;16.00;99.90;17.10;96903.00;;;;5027031;28;20213;-68
2022/06/04 04:20:47;;;;;;;6.37;4.77;;;16.00;99.90;17.30;96908.00;;;;5028008;28;20228;-68
2022/06/04 04:23:36;;;;;;;5.83;5.07;;;16.10;99.90;17.50;96918.00;;;;5027388;28;20212;-68
2022/06/04 04:26:25;;;;;;;5.20;4.80;;;16.10;99.90;17.60;96919.00;;;;5028586;28;20220;-68
2022/06/04 04:29:14;;;;;;;6.63;5.13;;;16.20;99.90;17.70;96928.00;;;;5025734;28;20230;-68
2022/06/04 04:32:02;;;;;;;6.67;4.60;;;16.20;99.90;17.80;96921.00;;;;5026077;28;20648;-68
2022/06/04 04:34:51;;;;;;;4.77;4.37;;;15.30;99.90;17.90;96918.00;;;;5023711;28;20571;-68
2022/06/04 04:37:42;;;;;;;10.07;5.20;;;16.40;99.90;18.10;96920.00;;;;5027040;28;20204;-68
2022/06/04 04:40:32;;;;;;;5.43;4.83;;;16.50;99.90;18.00;96925.00;;;;5029344;28;20229;-68
2022/06/04 04:43:21;;;;;;;9.00;5.20;;;16.60;99.90;17.80;96922.00;;;;5031056;28;20212;-68
2022/06/04 04:46:12;;;;;;;6.80;5.30;;;16.60;99.90;17.70;96934.00;;;;5026725;28;20197;-68
2022/06/04 04:49:01;;;;;;;5.93;5.13;;;16.70;99.90;17.90;96935.00;;;;5044827;23;20233;-66
2022/06/04 04:51:51;;;;;;;5.90;5.10;;;16.70;99.90;18.20;96934.00;;;;5008350;28;20205;-67
2022/06/04 04:54:41;;;;;;;6.60;4.63;;;16.80;99.90;18.30;96951.00;;;;5010380;28;20205;-66
2022/06/04 04:57:30;;;;;;;9.87;5.03;;;16.90;99.90;18.60;96943.00;;;;5009735;28;20204;-67
2022/06/04 05:00:20;;;;;;;5.20;4.53;;;17.00;99.90;18.70;96945.00;;;;5008916;28;20236;-67
2022/06/04 05:03:08;;;;;;;4.63;4.23;;;17.10;99.90;18.50;96948.00;;;;5009710;28;20204;-67
2022/06/04 05:05:58;;;;;;;5.03;4.53;;;17.20;99.90;18.50;96949.00;;;;5005978;28;20700;-67
2022/06/04 05:08:49;;;;;;;7.13;4.43;;;17.20;99.90;19.00;96947.00;;;;5010684;28;20197;-67
2022/06/04 05:11:39;;;;;;;9.20;4.07;;;17.40;99.90;19.20;96945.00;;;;5016169;28;20201;-68
2022/06/04 05:14:28;;;;;;;5.53;3.70;;;17.50;99.90;19.10;96949.00;;;;5006500;28;20206;-68
2022/06/04 05:17:17;;;;;;;5.43;4.10;;;17.60;99.90;19.00;96959.00;;;;5010176;28;20210;-67
2022/06/04 05:20:09;;;;;;;7.67;5.40;;;17.70;99.90;19.20;96958.00;;;;5008061;28;20705;-68
2022/06/04 05:22:58;;;;;;;6.20;4.93;;;17.80;99.90;19.50;96964.00;;;;5013867;28;20206;-68
2022/06/04 05:25:47;;;;;;;5.17;4.67;;;17.90;99.90;19.80;96958.00;;;;5006924;28;20260;-68
2022/06/04 05:28:37;;;;;;;7.63;5.27;;;18.00;99.90;20.10;96954.00;;;;5009610;28;20198;-67
2022/06/04 05:31:25;;;;;;;9.67;5.67;;;18.20;99.90;20.20;96953.00;;;;5008317;28;20225;-67
2022/06/04 05:34:17;;;;;;;10.30;6.07;;;18.40;99.90;19.90;96952.00;;;;5004354;28;20396;-67
2022/06/04 05:37:08;;;;;;;12.57;6.97;;;18.50;99.90;19.80;96956.00;;;;5004459;28;20199;-67
2022/06/04 05:39:57;;;;;;;6.50;4.97;;;18.50;99.90;19.60;96953.00;;;;5007257;28;20602;-66
2022/06/04 05:42:46;;;;;;;8.43;5.27;;;18.50;99.90;19.80;96953.00;;;;5007979;28;20198;-67
2022/06/04 05:45:36;;;;;;;11.40;6.30;;;18.60;99.90;20.20;96962.00;;;;5009280;28;20217;-66
2022/06/04 05:48:25;;;;;;;6.70;5.97;;;18.60;99.90;20.30;96961.00;;;;5008222;28;20213;-67
2022/06/04 05:51:19;;;;;;;10.37;5.70;;;18.80;99.90;20.20;96952.00;;;;5002034;28;20222;-67
2022/06/04 05:54:08;;;;;;;6.00;5.10;;;18.90;99.90;20.20;96949.00;;;;5005405;28;20201;-67
2022/06/04 05:56:57;;;;;;;7.50;5.53;;;18.90;99.90;20.20;96951.00;;;;5001766;28;20209;-68
2022/06/04 05:59:45;;;;;;;7.00;6.30;;;18.90;99.90;20.50;96949.00;;;;5011323;28;20697;-67
2022/06/04 06:02:36;;;;;;;5.80;5.30;;;19.10;99.90;20.70;96953.00;;;;5008965;28;20198;-67
2022/06/04 06:05:24;;;;;;;12.87;5.80;;;19.20;99.90;20.90;96959.00;;;;5010300;28;20214;-68
2022/06/04 06:08:14;;;;;;;6.83;5.57;;;19.30;99.90;20.60;96952.00;;;;5006919;28;20217;-68
2022/06/04 06:11:07;;;;;;;8.77;5.93;;;19.40;99.90;21.00;96948.00;;;;5009165;28;20544;-68
2022/06/04 06:13:56;;;;;;;9.30;5.43;;;19.50;99.90;21.10;96938.00;;;;5008627;28;20210;-67
2022/06/04 06:16:48;;;;;;;6.33;5.73;;;19.60;99.90;21.30;96950.00;;;;5009433;28;20217;-67
2022/06/04 06:19:38;;;;;;;7.30;5.70;;;19.70;99.90;21.50;96945.00;;;;5007584;28;20229;-66
2022/06/04 06:22:27;;;;;;;7.97;5.67;;;19.90;99.90;21.80;96942.00;;;;5007409;28;20206;-67
2022/06/04 06:25:16;;;;;;;6.87;5.63;;;20.00;99.90;22.00;96940.00;;;;5000477;28;20198;-67
2022/06/04 06:28:07;;;;;;;7.43;5.60;;;20.20;99.90;22.20;96944.00;;;;5004232;28;20692;-67
2022/06/04 06:30:56;;;;;;;6.40;4.97;;;20.40;99.90;22.10;96947.00;;;;5007145;28;20736;-67
2022/06/04 06:33:46;;;;;;;8.27;5.20;;;20.50;99.90;22.40;96946.00;;;;5006269;28;20198;-68
2022/06/04 06:36:36;;;;;;;6.93;5.40;;;20.60;99.90;22.00;96950.00;;;;5006266;28;20222;-67
2022/06/04 06:39:25;;;;;;;6.87;5.07;;;20.70;99.90;22.70;96943.00;;;;5013858;28;20251;-67
2022/06/04 06:42:14;;;;;;;7.33;5.50;;;20.80;99.90;22.70;96945.00;;;;4995144;28;20202;-67
2022/06/04 06:45:02;;;;;;;4.90;4.20;;;21.00;99.90;23.20;96949.00;;;;5006224;28;20586;-66
2022/06/04 06:47:51;;;;;;;5.90;5.27;;;21.20;99.90;23.40;96944.00;;;;5005672;28;20209;-67
2022/06/04 06:50:40;;;;;;;6.03;5.23;;;21.40;99.90;23.70;96947.00;;;;5010700;28;20236;-67
2022/06/04 06:53:31;;;;;;;9.30;5.13;;;21.60;99.90;23.70;96959.00;;;;5011120;28;20209;-67
2022/06/04 06:56:23;;;;;;;5.30;4.80;;;21.80;99.90;24.00;96957.00;;;;5011512;28;20232;-67
2022/06/04 06:59:12;;;;;;;6.57;5.13;;;22.00;99.90;24.10;96960.00;;;;5013221;28;20226;-67
2022/06/04 07:02:02;;;;;;;6.13;5.20;;;22.10;99.90;24.30;96960.00;;;;5018188;28;20212;-67
2022/06/04 07:04:50;;;;;;;5.77;4.27;;;22.30;99.90;24.40;96962.00;;;;4997220;28;20199;-68
2022/06/04 07:07:40;;;;;;;7.10;4.97;;;22.40;99.90;24.60;96969.00;;;;5010154;28;20198;-67
2022/06/04 07:10:34;;;;;;;9.40;4.60;;;22.60;99.90;24.70;96963.00;;;;5010851;28;20234;-67
2022/06/04 07:13:25;;;;;;;4.87;4.47;;;22.80;99.90;24.90;96967.00;;;;5012407;28;20206;-67
2022/06/04 07:16:14;;;;;;;4.60;4.20;;;22.90;99.90;25.20;96980.00;;;;5003438;28;20220;-67
2022/06/04 07:19:03;;;;;;;8.80;4.70;;;23.10;99.90;25.30;96973.00;;;;5021269;28;20277;-68
2022/06/04 07:21:53;;;;;;;5.03;4.37;;;23.30;99.90;25.40;96967.00;;;;5007035;28;20234;-67
2022/06/04 07:24:42;;;;;;;7.53;4.90;;;23.40;99.90;25.60;96973.00;;;;5011858;28;20588;-67
2022/06/04 07:27:32;;;;;;;4.97;4.40;;;23.50;99.90;25.80;96973.00;;;;5010239;28;20595;-68
2022/06/04 07:30:21;;;;;;;6.90;4.83;;;23.70;99.90;25.90;96975.00;;;;5009601;28;20234;-67
2022/06/04 07:33:10;;;;;;;4.07;3.67;;;23.80;99.90;25.80;96963.00;;;;5014476;28;20194;-67
2022/06/04 07:35:59;;;;;;;6.40;3.60;;;24.00;99.90;25.70;96970.00;;;;5029075;28;20209;-67
2022/06/04 07:38:48;;;;;;;8.07;4.10;;;24.00;99.90;25.80;96972.00;;;;5004701;28;20237;-67
2022/06/04 07:41:42;;;;;;;4.67;3.80;;;24.10;99.90;26.20;96965.00;;;;5011971;28;20218;-67
2022/06/04 07:44:33;;;;;;;8.33;3.80;;;24.20;99.90;26.20;96970.00;;;;5011056;28;20211;-67
2022/06/04 07:47:21;;;;;;;5.30;3.20;;;23.40;99.90;26.30;96965.00;;;;5012049;28;20601;-67
2022/06/04 07:50:13;;;;;;;8.40;4.57;;;24.30;99.90;26.60;96971.00;;;;5010669;28;20223;-67
2022/06/04 07:53:03;;;;;;;5.43;3.20;;;24.50;99.90;26.60;96971.00;;;;5010049;28;20214;-67
2022/06/04 07:55:52;;;;;;;5.03;3.10;;;24.60;99.90;26.70;96968.00;;;;5009965;28;20211;-67
2022/06/04 07:58:45;;;;;;;3.53;3.03;;;24.70;99.90;26.90;96964.00;;;;5007435;28;20262;-67
2022/06/04 08:01:36;;;;;;;4.33;3.73;;;24.80;99.90;26.80;96965.00;;;;5009958;28;20203;-67
2022/06/04 08:04:24;;;;;;;5.53;4.70;;;25.00;99.90;27.00;96960.00;;;;5007196;28;20209;-67
2022/06/04 08:07:13;;;;;;;4.23;3.47;;;25.10;99.90;27.20;96961.00;;;;5007802;28;20211;-67
2022/06/04 08:10:02;;;;;;;4.33;3.63;;;25.10;99.90;27.40;96960.00;;;;5011377;28;20230;-67
2022/06/04 08:12:51;;;;;;;3.03;2.73;;;25.30;99.90;27.20;96950.00;;;;5008571;28;20202;-67
2022/06/04 08:15:39;;;;;;;4.90;4.07;;;25.40;99.90;27.40;96953.00;;;;5008112;28;20663;-67
2022/06/04 08:18:30;;;;;;;4.27;3.47;;;25.50;99.90;27.50;96948.00;;;;5006012;28;20211;-67
2022/06/04 08:21:19;;;;;;;4.17;3.60;;;25.60;99.90;27.80;96952.00;;;;5002744;28;20217;-68
2022/06/04 08:24:09;;;;;;;4.70;2.90;;;25.70;99.90;28.10;96952.00;;;;5004795;28;20633;-66
2022/06/04 08:27:00;;;;;;;3.93;3.07;;;25.80;99.90;28.30;96948.00;;;;5006015;28;20656;-67
2022/06/04 08:29:49;;;;;;;6.43;3.97;;;26.10;99.90;28.10;96953.00;;;;5005351;28;20223;-66
2022/06/04 08:32:44;;;;;;;4.90;4.33;;;26.20;99.90;27.80;96947.00;;;;5008774;28;20215;-66
2022/06/04 08:35:34;;;;;;;9.20;3.00;;;26.20;99.90;28.00;96946.00;;;;5003930;28;20680;-68
2022/06/04 08:38:26;;;;;;;7.17;3.27;;;26.20;99.90;28.60;96950.00;;;;5008476;28;20215;-66
2022/06/04 08:41:40;;;;;;;5.67;2.77;;;26.30;99.90;28.60;96937.00;;;;5003933;28;20223;-65
2022/06/04 08:44:33;;;;;;;5.50;3.60;;;26.50;99.90;28.60;96945.00;;;;5008279;28;20200;-66
2022/06/04 08:47:27;;;;;;;6.70;3.20;;;26.60;99.90;28.90;96941.00;;;;5007969;28;20703;-66
2022/06/04 08:50:21;;;;;;;3.43;3.00;;;26.70;99.90;28.90;96934.00;;;;5009131;28;20236;-66
2022/06/04 08:53:22;;;;;;;7.17;3.40;;;26.80;99.90;29.10;96933.00;;;;5003677;28;20209;-66
2022/06/04 08:59:36;;;;;;;4.97;2.63;;;27.10;99.90;29.40;96928.00;;;;5007490;28;20221;-66
2022/06/04 09:02:40;;;;;;;4.10;2.90;;;27.20;99.90;29.50;96936.00;;;;5007442;28;20205;-66
2022/06/04 09:06:05;;;;;;;3.90;2.90;;;27.30;99.90;29.30;96928.00;;;;5003892;28;20220;-65
2022/06/04 09:09:03;;;;;;;3.90;2.87;;;27.70;99.90;29.50;96934.00;;;;5007772;28;20210;-66
2022/06/04 09:11:57;;;;;;;5.07;3.23;;;27.50;99.90;29.80;96932.00;;;;5008072;28;20712;-66
2022/06/04 09:14:52;;;;;;;6.03;3.50;;;27.60;99.90;30.00;96940.00;;;;5006110;28;20674;-66
2022/06/04 09:17:45;;;;;;;3.87;2.67;;;27.70;99.90;30.10;96937.00;;;;5005548;28;20209;-66
2022/06/04 09:20:42;;;;;;;3.63;2.73;;;27.90;98.90;30.40;96932.00;;;;5007083;28;20698;-66
2022/06/04 09:23:43;;;;;;;6.67;3.67;;;28.10;98.70;30.40;96936.00;;;;5004189;28;20671;-66
2022/06/04 09:26:40;;;;;;;4.23;3.37;;;28.30;99.00;30.80;96935.00;;;;5008218;28;20226;-66
2022/06/04 09:29:58;;;;;;;5.07;3.60;;;28.40;98.70;30.80;96941.00;;;;5003089;28;20261;-66
2022/06/04 09:33:01;;;;;;;3.30;3.00;;;28.50;99.00;30.80;96941.00;;;;5006590;28;20219;-66
2022/06/04 09:35:50;;;;;;;5.60;3.33;;;28.70;97.70;31.00;96946.00;;;;5005487;28;20222;-67
2022/06/04 09:38:39;;;;;;;4.20;3.20;;;28.80;97.50;31.20;96950.00;;;;5006443;28;20207;-66
2022/06/04 09:41:34;;;;;;;4.67;2.97;;;29.00;96.50;31.10;96939.00;;;;5005478;28;20212;-66
2022/06/04 09:44:24;;;;;;;7.13;3.03;;;29.10;96.10;31.00;96927.00;;;;5007394;28;20637;-67
2022/06/04 09:47:21;;;;;;;3.70;3.27;;;29.10;95.10;31.60;96927.00;;;;5004628;28;20682;-67
2022/06/04 09:50:24;;;;;;;4.60;3.30;;;29.20;95.50;31.80;96925.00;;;;5005207;28;20231;-67
2022/06/04 09:53:20;;;;;;;4.83;3.33;;;29.50;94.30;31.90;96924.00;;;;5003520;28;20230;-66
2022/06/04 09:56:14;;;;;;;4.97;3.33;;;29.60;94.10;32.20;96917.00;;;;5005520;28;20203;-67
2022/06/04 09:59:24;;;;;;;5.15;3.97;;;29.70;94.20;32.30;96923.00;;;;5004129;28;20205;-67
2022/06/04 10:02:19;;;;;;;6.47;4.30;;;30.00;94.20;32.50;96920.00;;;;5001827;28;20208;-67
2022/06/04 10:05:20;;;;;;;4.35;3.58;;;30.10;95.00;32.80;96924.00;;;;5005205;28;20290;-67
2022/06/04 10:08:13;;;;;;;3.72;3.40;;;30.30;94.40;32.80;96915.00;;;;5003508;28;20207;-68
2022/06/04 10:11:05;;;;;;;6.57;3.88;;;30.50;94.00;32.50;96914.00;;;;5005353;28;20615;-67
2022/06/04 10:13:57;;;;;;;5.38;4.10;;;30.50;92.80;32.70;96916.00;;;;5004120;28;20226;-67
2022/06/04 10:16:48;;;;;;;4.20;3.72;;;30.60;92.90;32.70;96920.00;;;;5008000;28;20201;-67
2022/06/04 10:19:37;;;;;;;4.97;4.07;;;30.60;92.50;33.00;96907.00;;;;5004288;28;20226;-68
2022/06/04 10:22:25;;;;;;;5.72;4.15;;;30.70;91.90;33.00;96923.00;;;;5004801;28;20211;-68
2022/06/04 10:25:24;;;;;;;5.07;4.40;;;30.80;91.10;33.20;96920.00;;;;5009436;28;20835;-68
2022/06/04 10:28:30;;;;;;;4.13;3.20;;;30.90;90.70;33.10;96921.00;;;;5010280;28;20198;-67
2022/06/04 10:31:32;;;;;;;3.78;3.47;;;31.00;87.80;32.60;96912.00;;;;5013672;28;20199;-67
2022/06/04 10:34:33;;;;;;;4.75;3.55;;;30.90;87.70;33.20;96915.00;;;;5009290;28;20679;-66
2022/06/04 10:37:41;;;;;;;4.32;3.10;;;31.00;89.20;33.40;96919.00;;;;5006584;28;20214;-68
2022/06/04 10:40:42;;;;;;;4.78;3.08;;;31.10;89.30;32.90;96920.00;;;;5008322;28;20224;-68
2022/06/04 10:44:16;;;;;;;3.78;2.85;;;31.20;90.40;33.10;96921.00;;;;5009159;28;20208;-70
2022/06/04 10:47:21;;;;;;;4.30;2.92;;;31.20;86.60;31.90;96919.00;;;;5008555;28;20200;-66
2022/06/04 10:50:30;;;;;;;4.10;2.53;;;31.00;85.60;31.60;96910.00;;;;5028354;22;20240;-65
2022/06/04 10:53:32;;;;;;;5.63;2.83;;;30.70;81.30;30.60;96902.00;;;;5045894;28;20220;-63
2022/06/04 10:56:30;;;;;;;3.95;2.53;;;30.20;81.50;30.20;96901.00;;;;5047013;28;20200;-69
2022/06/04 10:59:23;;;;;;;6.35;2.78;;;29.70;80.40;31.70;96892.00;;;;5044841;28;20604;-66
2022/06/04 11:02:19;;;;;;;4.25;2.40;;;29.70;84.60;31.20;96890.00;;;;5025405;28;20221;-65
2022/06/04 11:05:15;;;;;;;3.60;1.85;;;29.80;81.30;31.60;96902.00;;;;5023857;28;20217;-65
2022/06/04 11:08:12;;;;;;;2.03;1.90;;;30.00;82.40;32.80;96893.00;;;;5022131;28;20215;-66
2022/06/04 11:11:05;;;;;;;2.88;2.20;;;30.30;82.10;32.10;96888.00;;;;5027305;28;20308;-68
2022/06/04 11:14:00;;;;;;;2.92;2.30;;;30.40;75.10;33.80;96888.00;;;;5030215;28;20406;-66
2022/06/04 11:16:58;;;;;;;4.80;2.13;;;30.80;80.20;32.80;96883.00;;;;5014672;28;20225;-66
2022/06/04 11:19:59;;;;;;;3.38;1.75;;;31.00;75.30;33.50;96875.00;;;;5026433;28;20219;-65
2022/06/04 11:22:59;;;;;;;3.35;2.40;;;31.30;77.20;34.20;96877.00;;;;5026791;28;20591;-66
2022/06/04 11:25:54;;;;;;;5.85;2.42;;;31.50;76.10;33.80;96876.00;;;;5028965;28;20217;-71
2022/06/04 11:28:42;;;;;;;5.00;2.40;;;31.70;75.00;34.00;96868.00;;;;5027554;28;20196;-70
2022/06/04 11:31:52;;;;;;;2.20;1.95;;;31.80;73.20;34.50;96867.00;;;;5026902;28;20230;-70
2022/06/04 11:35:11;;;;;;;1.63;1.52;;;32.00;73.10;34.30;96863.00;;;;5026828;28;20282;-68
2022/06/04 11:38:22;;;;;;;3.88;1.90;;;32.10;70.70;35.00;96861.00;;;;5027462;28;20211;-68
2022/06/04 11:41:24;;;;;;;3.70;1.85;;;32.40;72.30;35.30;96892.00;;;;5029016;28;20230;-68
2022/06/04 11:44:55;;;;;;;3.13;2.20;;;32.70;73.40;32.80;96842.00;;;;5026519;28;20204;-66
2022/06/04 11:48:05;;;;;;;2.67;2.03;;;32.10;66.80;33.20;96847.00;;;;5028337;28;20204;-68
2022/06/04 11:51:08;;;;;;;3.58;1.92;;;31.80;66.80;33.40;96836.00;;;;5028358;28;20238;-66
2022/06/04 11:54:12;;;;;;;3.72;2.15;;;31.90;67.40;34.20;96890.00;;;;5028448;28;20234;-67
2022/06/04 11:57:13;;;;;;;2.72;1.80;;;31.90;69.80;34.30;96884.00;;;;5027245;28;20601;-67
2022/06/04 12:00:23;;;;;;;4.53;1.85;;;32.10;69.40;33.50;96836.00;;;;5023764;28;20607;-67
2022/06/04 12:03:18;;;;;;;5.90;2.58;;;32.10;69.00;34.70;96846.00;;;;5025543;28;20214;-68
2022/06/04 12:06:14;;;;;;;2.83;2.28;;;32.30;69.50;35.70;96869.00;;;;5023057;28;20208;-69
2022/06/04 12:09:18;;;;;;;6.40;2.22;;;32.70;69.60;33.60;96887.00;;;;5025445;28;20220;-67
2022/06/04 12:12:13;;;;;;;2.60;2.10;;;32.40;64.00;35.40;96834.00;;;;5023675;28;20205;-74
2022/06/04 12:15:17;;;;;;;2.85;2.45;;;32.60;67.90;36.80;96830.00;;;;5026903;28;20209;-72
2022/06/04 12:18:26;;;;;;;3.58;2.35;;;33.10;70.00;36.10;96817.00;;;;5022099;28;20227;-70
2022/06/04 12:24:45;;;;;;;4.88;2.65;;;34.00;69.20;35.90;96881.00;;;;5026589;28;20178;-70
2022/06/04 12:27:38;;;;;;;5.28;2.65;;;34.10;65.70;36.60;96886.00;;;;5025093;28;20212;-69
2022/06/04 12:30:42;;;;;;;2.80;2.15;;;34.10;65.40;34.90;96887.00;;;;5025818;28;20232;-69
2022/06/04 12:33:35;;;;;;;2.95;2.30;;;33.70;65.60;34.70;96811.00;;;;5025171;28;20270;-67
2022/06/04 12:36:27;;;;;;;2.50;2.30;;;33.60;65.00;35.80;96858.00;;;;5024415;28;20557;-66
2022/06/04 12:39:24;;;;;;;6.35;3.05;;;33.60;65.20;36.80;96813.00;;;;5022249;28;20208;-68
2022/06/04 12:42:20;;;;;;;4.68;2.80;;;33.90;66.40;36.10;96858.00;;;;5024195;28;20208;-68
2022/06/04 12:45:40;;;;;;;3.95;2.17;;;34.10;63.70;36.40;96801.00;;;;5025593;28;20202;-68
2022/06/04 12:48:44;;;;;;;3.20;2.90;;;34.00;64.60;35.80;96880.00;;;;5021609;28;20676;-68
2022/06/04 12:51:50;;;;;;;3.33;2.63;;;33.90;65.10;35.00;96868.00;;;;5025516;28;20236;-68
2022/06/04 12:54:55;;;;;;;4.43;2.70;;;33.50;64.60;35.00;96866.00;;;;5027618;28;20586;-67
2022/06/04 12:57:52;;;;;;;4.93;2.50;;;33.20;66.50;35.00;96853.00;;;;5024914;28;21657;-68
2022/06/04 13:00:43;;;;;;;3.90;2.80;;;33.10;67.40;34.30;96842.00;;;;5027078;28;20225;-68
2022/06/04 13:03:39;;;;;;;5.22;2.47;;;32.90;66.40;36.10;96799.00;;;;5026725;28;20232;-68
2022/06/04 13:06:36;;;;;;;5.00;3.13;;;33.20;66.90;34.50;96810.00;;;;5023022;28;20193;-66